Time;durP1;ratioP1;P1;durP2;ratioP2;P2;SDS_P1;SDS_P2;PMS_P1;PMS_P2;Temp;Humidity;BMP_temperature;BMP_pressure;BME280_temperature;BME280_humidity;BME280_pressure;Samples;Min_cycle;Max_cycle;Signal;HPM_P1;HPM_P2
2023/05/16 00:00:07;;;;;;;15.73;2.47;;;;;;;8.84;100.00;101783.41;5019775;28;20049;-81
2023/05/16 00:02:38;;;;;;;13.32;3.45;;;;;;;8.82;100.00;101790.38;5027365;28;20435;-80
2023/05/16 00:05:15;;;;;;;16.05;3.38;;;;;;;8.79;100.00;101800.81;5010376;28;20052;-80
2023/05/16 00:07:44;;;;;;;22.17;3.03;;;;;;;8.74;100.00;101799.81;5044423;28;20049;-80
2023/05/16 00:10:12;;;;;;;17.58;2.88;;;;;;;8.70;100.00;101801.47;5041027;28;20037;-79
2023/05/16 00:12:39;;;;;;;14.57;2.85;;;;;;;8.68;100.00;101797.03;5034099;28;20052;-81
2023/05/16 00:15:11;;;;;;;15.90;2.60;;;;;;;8.67;100.00;101804.00;5048657;28;20367;-80
2023/05/16 00:17:39;;;;;;;13.57;3.33;;;;;;;8.65;100.00;101800.44;5007634;28;20055;-81
2023/05/16 00:20:10;;;;;;;13.30;2.90;;;;;;;8.65;100.00;101803.06;5049718;28;20060;-82
2023/05/16 00:22:38;;;;;;;;;;;;;;;8.61;100.00;101803.84;5017577;28;20063;-80
2023/05/16 00:25:07;;;;;;;12.60;1.80;;;;;;;8.56;100.00;101801.09;5058227;28;19925;-79
2023/05/16 00:27:35;;;;;;;17.60;3.53;;;;;;;8.57;100.00;101807.25;5045122;28;20067;-79
2023/05/16 00:30:03;;;;;;;17.27;2.70;;;;;;;8.54;100.00;101800.19;5048430;28;20055;-80
2023/05/16 00:32:31;;;;;;;10.77;2.47;;;;;;;8.54;100.00;101807.16;5006311;28;20049;-81
2023/05/16 00:35:00;;;;;;;14.65;2.53;;;;;;;8.51;100.00;101797.47;5034254;28;20058;-82
2023/05/16 00:37:28;;;;;;;10.00;2.30;;;;;;;8.49;100.00;101799.16;5046526;28;20060;-82
2023/05/16 00:39:56;;;;;;;12.27;2.42;;;;;;;8.50;100.00;101803.56;5027068;28;20049;-80
2023/05/16 00:42:23;;;;;;;10.10;2.17;;;;;;;8.50;100.00;101808.81;5035709;28;20048;-81
2023/05/16 00:44:50;;;;;;;16.55;3.45;;;;;;;8.49;100.00;101798.28;5022833;28;20052;-82
2023/05/16 00:47:18;;;;;;;15.38;3.03;;;;;;;8.49;100.00;101804.41;4979567;28;22029;-82
2023/05/16 00:49:46;;;;;;;17.02;2.90;;;;;;;8.49;100.00;101796.53;5050704;28;20041;-81
2023/05/16 00:52:15;;;;;;;14.60;2.95;;;;;;;8.49;100.00;101799.16;5031219;28;20052;-80
2023/05/16 00:54:42;;;;;;;14.65;3.20;;;;;;;8.52;100.00;101801.84;5086741;28;20040;-80
2023/05/16 00:57:12;;;;;;;15.80;2.80;;;;;;;8.51;100.00;101802.72;5031148;28;20049;-81
2023/05/16 00:59:41;;;;;;;10.30;2.70;;;;;;;8.52;100.00;101800.97;5040328;28;20496;-81
2023/05/16 01:02:08;;;;;;;10.57;2.30;;;;;;;8.52;100.00;101800.97;5011209;28;20055;-82
2023/05/16 01:04:39;;;;;;;13.15;2.60;;;;;;;8.52;100.00;101799.22;5047496;28;20052;-81
2023/05/16 01:07:06;;;;;;;13.20;3.10;;;;;;;8.50;100.00;101807.94;5037172;28;20053;-81
2023/05/16 01:09:34;;;;;;;11.50;2.45;;;;;;;8.49;100.00;101808.78;5036560;28;20044;-81
2023/05/16 01:12:13;;;;;;;11.00;3.00;;;;;;;8.46;100.00;101801.69;5036051;28;20079;-81
2023/05/16 01:15:05;;;;;;;10.82;2.80;;;;;;;8.46;100.00;101806.94;5040738;28;20049;-80
2023/05/16 01:17:45;;;;;;;13.63;2.20;;;;;;;8.45;100.00;101799.94;5021564;28;20870;-81
2023/05/16 01:20:16;;;;;;;21.63;3.50;;;;;;;8.43;100.00;101805.97;5039666;28;20045;-81
2023/05/16 01:22:44;;;;;;;16.65;4.13;;;;;;;8.43;100.00;101803.34;5065543;28;20421;-81
2023/05/16 01:25:30;;;;;;;10.70;2.50;;;;;;;8.44;100.00;101806.03;5036133;28;20060;-81
2023/05/16 01:28:01;;;;;;;16.27;3.17;;;;;;;8.44;100.00;101802.50;5071078;28;20059;-81
2023/05/16 01:30:34;;;;;;;9.17;1.90;;;;;;;8.42;100.00;101799.84;5050763;28;20496;-80
2023/05/16 01:33:04;;;;;;;12.65;3.78;;;;;;;8.40;100.00;101805.00;5027606;28;20317;-80
2023/05/16 01:35:33;;;;;;;9.55;2.45;;;;;;;8.37;100.00;101806.66;5032274;28;20557;-79
2023/05/16 01:38:16;;;;;;;11.38;2.53;;;;;;;8.32;100.00;101805.66;5052233;28;20048;-81
2023/05/16 01:41:01;;;;;;;6.93;2.10;;;;;;;8.28;100.00;101814.28;5048280;28;20043;-82
2023/05/16 01:43:42;;;;;;;12.00;2.28;;;;;;;8.24;100.00;101802.81;5069548;28;20051;-81
2023/05/16 01:46:19;;;;;;;19.15;2.38;;;;;;;8.23;100.00;101802.78;5072167;28;20059;-81
2023/05/16 01:48:53;;;;;;;10.65;2.10;;;;;;;8.20;100.00;101801.84;5009432;28;20055;-82
2023/05/16 01:51:23;;;;;;;14.07;2.22;;;;;;;8.20;100.00;101801.84;5050022;28;20048;-81
2023/05/16 01:53:57;;;;;;;11.02;2.10;;;;;;;8.18;100.00;101814.03;5054430;28;20052;-81
2023/05/16 01:56:28;;;;;;;11.45;2.20;;;;;;;8.17;100.00;101812.25;5036772;28;20505;-81
2023/05/16 01:58:58;;;;;;;8.02;2.17;;;;;;;8.15;100.00;101808.69;5046786;28;20041;-82
2023/05/16 02:01:25;;;;;;;9.52;2.58;;;;;;;8.13;100.00;101810.38;5041348;28;20049;-81
2023/05/16 02:03:53;;;;;;;7.45;1.85;;;;;;;8.12;100.00;101812.97;5002220;28;20429;-79
2023/05/16 02:06:21;;;;;;;7.53;1.98;;;;;;;8.10;100.00;101812.91;5044522;28;20074;-79
2023/05/16 02:08:48;;;;;;;7.15;2.03;;;;;;;8.09;100.00;101808.53;5057059;28;20493;-80
2023/05/16 02:11:17;;;;;;;14.68;3.00;;;;;;;8.06;100.00;101808.44;5051003;28;20055;-80
2023/05/16 02:13:44;;;;;;;9.45;2.55;;;;;;;8.06;100.00;101803.19;5052805;28;20413;-79
2023/05/16 02:16:12;;;;;;;15.45;2.97;;;;;;;8.08;100.00;101801.47;5048699;28;20048;-79
2023/05/16 02:18:41;;;;;;;11.77;2.72;;;;;;;8.10;100.00;101809.41;5050695;28;20072;-80
2023/05/16 02:21:08;;;;;;;11.73;2.05;;;;;;;8.11;100.00;101806.84;5002394;28;20417;-81
2023/05/16 02:23:36;;;;;;;9.88;2.30;;;;;;;8.11;100.00;101804.22;5004832;28;20053;-81
2023/05/16 02:26:03;;;;;;;13.90;2.25;;;;;;;8.12;100.00;101802.47;5028228;28;20048;-82
2023/05/16 02:28:30;;;;;;;10.40;2.42;;;;;;;8.11;100.00;101804.22;5029698;28;20073;-81
2023/05/16 02:30:59;;;;;;;12.85;3.25;;;;;;;8.10;100.00;101806.78;5042866;28;20052;-81
2023/05/16 02:33:28;;;;;;;14.55;2.33;;;;;;;8.10;100.00;101799.78;5029849;28;20063;-81
2023/05/16 02:35:55;;;;;;;12.02;3.40;;;;;;;8.12;100.00;101810.34;4990956;28;20056;-81
2023/05/16 02:38:25;;;;;;;7.57;2.28;;;;;;;8.10;100.00;101810.28;5039079;28;20052;-82
2023/05/16 02:40:55;;;;;;;7.00;1.67;;;;;;;8.10;100.00;101818.16;5061975;28;20056;-81
2023/05/16 02:43:23;;;;;;;15.45;2.75;;;;;;;8.10;100.00;101820.78;5042911;28;20058;-80
2023/05/16 02:45:51;;;;;;;8.23;2.08;;;;;;;8.10;100.00;101812.91;5035806;28;20067;-82
2023/05/16 02:48:19;;;;;;;12.10;2.10;;;;;;;8.11;100.00;101819.97;5040767;28;20049;-81
2023/05/16 02:50:46;;;;;;;6.63;2.17;;;;;;;8.10;100.00;101804.16;5010591;28;20539;-82
2023/05/16 02:53:14;;;;;;;7.97;3.05;;;;;;;8.09;100.00;101807.63;5025840;28;20418;-82
2023/05/16 02:55:42;;;;;;;8.52;1.92;;;;;;;8.10;100.00;101815.53;5046753;28;20060;-82
2023/05/16 02:58:09;;;;;;;9.13;2.22;;;;;;;8.09;100.00;101811.16;5032909;28;20052;-79
2023/05/16 03:00:37;;;;;;;10.68;2.67;;;;;;;8.07;100.00;101810.22;5045651;28;20076;-82
2023/05/16 03:03:04;;;;;;;10.80;2.22;;;;;;;8.05;100.00;101809.25;5037056;28;20053;-81
2023/05/16 03:05:32;;;;;;;13.75;1.88;;;;;;;8.03;100.00;101810.94;5029498;28;20045;-79
2023/05/16 03:08:00;;;;;;;11.68;2.08;;;;;;;7.98;100.00;101804.69;5027319;28;20045;-81
2023/05/16 03:10:27;;;;;;;15.10;2.40;;;;;;;7.96;100.00;101804.66;5048940;28;20053;-80
2023/05/16 03:12:54;;;;;;;8.48;1.85;;;;;;;7.93;100.00;101807.19;5043730;28;20041;-81
2023/05/16 03:15:22;;;;;;;10.30;2.45;;;;;;;7.92;100.00;101813.28;5047368;28;20049;-80
2023/05/16 03:17:49;;;;;;;9.18;2.20;;;;;;;7.93;100.00;101811.53;5053701;28;20056;-80
2023/05/16 03:20:17;;;;;;;9.35;2.00;;;;;;;7.93;100.00;101808.91;5069250;28;20052;-80
2023/05/16 03:22:46;;;;;;;10.45;2.05;;;;;;;7.95;100.00;101821.22;4996668;28;20048;-80
2023/05/16 03:25:14;;;;;;;9.80;2.25;;;;;;;7.99;100.00;101816.97;5016476;28;20045;-80
2023/05/16 03:27:41;;;;;;;9.93;2.47;;;;;;;8.04;100.00;101819.75;5058625;28;20052;-81
2023/05/16 03:30:09;;;;;;;7.10;1.90;;;;;;;8.05;100.00;101816.25;5036363;28;20050;-81
2023/05/16 03:32:37;;;;;;;9.30;1.95;;;;;;;8.06;100.00;101818.94;5012465;28;20056;-81
2023/05/16 03:35:05;;;;;;;8.13;2.45;;;;;;;8.07;100.00;101820.72;5035830;28;20065;-81
2023/05/16 03:37:33;;;;;;;7.32;2.58;;;;;;;8.05;100.00;101811.88;4970815;28;20049;-81
2023/05/16 03:40:00;;;;;;;12.07;2.67;;;;;;;8.03;100.00;101818.81;5049844;28;20044;-81
2023/05/16 03:42:28;;;;;;;11.82;2.72;;;;;;;8.03;100.00;101820.56;5041377;28;20081;-79
2023/05/16 03:44:56;;;;;;;12.45;2.35;;;;;;;8.03;100.00;101824.06;5020760;28;20549;-79
2023/05/16 03:47:23;;;;;;;11.18;2.17;;;;;;;8.03;100.00;101829.31;5046784;28;20044;-82
2023/05/16 03:49:52;;;;;;;12.73;3.45;;;;;;;8.03;100.00;101826.69;5039007;28;20049;-82
2023/05/16 03:52:19;;;;;;;14.55;2.60;;;;;;;8.05;100.00;101835.50;4975770;28;20592;-79
2023/05/16 03:54:47;;;;;;;10.00;2.42;;;;;;;8.05;100.00;101832.00;5025299;28;20045;-81
2023/05/16 03:57:14;;;;;;;12.05;2.88;;;;;;;8.06;100.00;101832.06;5024568;28;20061;-80
2023/05/16 03:59:43;;;;;;;11.68;2.88;;;;;;;8.08;100.00;101830.38;5045313;28;20060;-81
2023/05/16 04:02:13;;;;;;;8.45;2.30;;;;;;;8.08;100.00;101840.88;5014699;28;20417;-79
2023/05/16 04:04:44;;;;;;;11.20;2.63;;;;;;;8.09;100.00;101841.75;5021730;28;20490;-81
2023/05/16 04:07:12;;;;;;;11.15;2.38;;;;;;;8.07;100.00;101844.34;4984609;28;20549;-81
2023/05/16 04:09:39;;;;;;;4.97;1.77;;;;;;;8.08;100.00;101848.75;5036417;28;20041;-80
2023/05/16 04:12:07;;;;;;;13.18;1.60;;;;;;;8.10;100.00;101851.41;5039070;28;20045;-80
2023/05/16 04:14:34;;;;;;;12.05;2.47;;;;;;;8.11;100.00;101853.19;5036896;28;20041;-80
2023/05/16 04:17:02;;;;;;;6.93;2.35;;;;;;;8.13;100.00;101854.13;5045490;28;20053;-80
2023/05/16 04:19:30;;;;;;;9.20;2.17;;;;;;;8.13;100.00;101855.03;5068646;28;20045;-80
2023/05/16 04:21:57;;;;;;;8.40;2.15;;;;;;;8.16;100.00;101855.09;5057776;28;20059;-83
2023/05/16 04:24:27;;;;;;;17.27;3.05;;;;;;;8.19;100.00;101855.19;5009724;28;20045;-80
2023/05/16 04:26:56;;;;;;;9.45;1.95;;;;;;;8.22;100.00;101858.75;5048060;28;20513;-81
2023/05/16 04:29:24;;;;;;;13.48;2.20;;;;;;;8.25;100.00;101861.47;5032709;28;20044;-79
2023/05/16 04:31:52;;;;;;;9.40;3.13;;;;;;;8.27;100.00;101859.78;5063621;28;20045;-79
2023/05/16 04:34:20;;;;;;;13.98;2.15;;;;;;;8.28;100.00;101858.91;5026708;28;20059;-80
2023/05/16 04:36:47;;;;;;;7.47;2.00;;;;;;;8.30;100.00;101865.09;5012203;28;20037;-80
2023/05/16 04:39:14;;;;;;;9.93;2.10;;;;;;;8.31;100.00;101862.53;5019151;28;20060;-81
2023/05/16 04:41:41;;;;;;;10.27;2.25;;;;;;;8.34;100.00;101869.63;5047630;28;20037;-80
2023/05/16 04:44:10;;;;;;;9.18;1.88;;;;;;;8.47;100.00;101869.16;5060543;28;20036;-81
2023/05/16 04:46:37;;;;;;;8.48;2.72;;;;;;;8.67;100.00;101871.44;5065726;28;20064;-81
2023/05/16 04:49:05;;;;;;;7.65;1.90;;;;;;;8.70;100.00;101872.41;5025824;28;20056;-80
2023/05/16 04:51:32;;;;;;;12.88;2.80;;;;;;;8.72;100.00;101859.31;5033222;28;20057;-80
2023/05/16 04:53:59;;;;;;;9.18;2.58;;;;;;;8.75;100.00;101867.28;5007481;28;20067;-81
2023/05/16 04:56:27;;;;;;;11.45;1.80;;;;;;;8.76;100.00;101871.69;5023930;28;20057;-80
2023/05/16 04:58:54;;;;;;;6.95;1.83;;;;;;;8.76;100.00;101872.56;5044054;28;20045;-82
2023/05/16 05:01:22;;;;;;;9.45;2.13;;;;;;;9.05;100.00;101867.19;5034313;28;20060;-80
2023/05/16 05:03:51;;;;;;;7.43;1.75;;;;;;;9.14;100.00;101867.44;5047988;28;20449;-80
2023/05/16 05:06:18;;;;;;;7.78;2.67;;;;;;;9.18;100.00;101866.66;5043171;28;20045;-80
2023/05/16 05:08:46;;;;;;;8.65;2.33;;;;;;;9.26;100.00;101864.25;5047749;28;20970;-80
2023/05/16 05:11:14;;;;;;;11.75;2.40;;;;;;;9.58;100.00;101872.00;4985428;28;20774;-80
2023/05/16 05:13:41;;;;;;;9.63;2.03;;;;;;;9.71;100.00;101868.78;5021823;28;20045;-80
2023/05/16 05:16:08;;;;;;;12.13;2.70;;;;;;;9.69;100.00;101862.59;5035108;28;20049;-81
2023/05/16 05:18:35;;;;;;;7.93;1.77;;;;;;;9.58;100.00;101874.63;5009825;28;20060;-81
2023/05/16 05:21:03;;;;;;;7.10;1.77;;;;;;;9.45;100.00;101877.81;5037596;28;20044;-81
2023/05/16 05:23:31;;;;;;;8.52;1.88;;;;;;;9.82;100.00;101876.94;5059250;28;20045;-80
2023/05/16 05:25:59;;;;;;;11.13;1.88;;;;;;;10.42;100.00;101880.03;5001632;28;20049;-82
2023/05/16 05:28:26;;;;;;;3.67;1.67;;;;;;;10.74;100.00;101883.28;5023701;28;20053;-82
2023/05/16 05:30:54;;;;;;;6.40;1.33;;;;;;;10.75;100.00;101878.91;5038585;28;20060;-81
2023/05/16 05:33:27;;;;;;;7.75;1.70;;;;;;;10.76;100.00;101870.16;5021802;28;20045;-82
2023/05/16 05:35:54;;;;;;;7.65;1.90;;;;;;;11.04;100.00;101882.06;5066558;28;20052;-82
2023/05/16 05:38:22;;;;;;;4.88;1.63;;;;;;;11.78;100.00;101889.44;5069228;28;20395;-83
2023/05/16 05:40:49;;;;;;;8.07;2.17;;;;;;;12.54;100.00;101880.78;5000946;28;20064;-82
2023/05/16 05:43:19;;;;;;;7.15;1.92;;;;;;;13.35;100.00;101872.78;5031868;28;20056;-82
2023/05/16 05:45:46;;;;;;;8.85;2.75;;;;;;;13.94;100.00;101868.78;5065121;28;20053;-82
2023/05/16 05:48:14;;;;;;;8.07;1.55;;;;;;;14.39;100.00;101880.47;5048572;28;20481;-81
2023/05/16 05:50:41;;;;;;;7.30;1.85;;;;;;;14.15;100.00;101880.38;5031962;28;20522;-82
2023/05/16 05:53:08;;;;;;;7.40;1.70;;;;;;;13.62;100.00;101887.13;5047131;28;20037;-82
2023/05/16 05:55:36;;;;;;;10.23;2.00;;;;;;;12.99;100.00;101898.03;5009198;28;21652;-82
2023/05/16 05:58:03;;;;;;;8.63;1.60;;;;;;;12.39;100.00;101905.28;5035582;28;20151;-82
2023/05/16 06:00:33;;;;;;;9.05;2.08;;;;;;;12.11;100.00;101903.13;5012606;28;20049;-81
2023/05/16 06:03:00;;;;;;;6.93;1.80;;;;;;;12.27;100.00;101902.50;5062627;28;20048;-82
2023/05/16 06:05:29;;;;;;;6.40;1.75;;;;;;;12.44;100.00;101898.28;5049949;28;20048;-81
2023/05/16 06:07:57;;;;;;;6.13;1.83;;;;;;;12.60;100.00;101898.47;5044004;28;20056;-81
2023/05/16 06:10:24;;;;;;;5.40;1.45;;;;;;;12.84;100.00;101898.75;5051463;28;20052;-82
2023/05/16 06:12:52;;;;;;;5.93;1.40;;;;;;;13.01;100.00;101901.56;5001885;28;20156;-81
2023/05/16 06:15:19;;;;;;;6.97;1.67;;;;;;;13.30;100.00;101900.06;5053908;28;20055;-82
2023/05/16 06:17:47;;;;;;;5.30;1.80;;;;;;;13.41;100.00;101903.72;5038013;28;20056;-81
2023/05/16 06:20:15;;;;;;;3.97;1.30;;;;;;;13.36;100.00;101906.31;5056721;28;20052;-81
2023/05/16 06:22:42;;;;;;;6.47;1.55;;;;;;;13.38;100.00;101911.63;5058378;28;20044;-81
2023/05/16 06:25:10;;;;;;;4.30;1.65;;;;;;;13.35;100.00;101908.97;5054015;28;20386;-81
2023/05/16 06:27:37;;;;;;;8.52;1.88;;;;;;;13.21;100.00;101922.94;4995067;28;20083;-80
2023/05/16 06:30:05;;;;;;;6.38;2.00;;;;;;;12.92;100.00;101927.03;5036638;28;20045;-82
2023/05/16 06:32:33;;;;;;;7.65;1.30;;;;;;;12.64;100.00;101934.66;5057367;28;20810;-81
2023/05/16 06:35:07;;;;;;;5.43;1.55;;;;;;;12.51;100.00;101928.31;5039805;28;20396;-81
2023/05/16 06:37:34;;;;;;;6.13;1.65;;;;;;;12.48;100.00;101931.81;5052893;28;20053;-82
2023/05/16 06:40:02;;;;;;;4.78;2.15;;;;;;;12.51;100.00;101932.72;5050005;28;20045;-81
2023/05/16 06:42:29;;;;;;;8.85;1.80;;;;;;;12.55;100.00;101943.38;5018960;28;20044;-82
2023/05/16 06:44:57;;;;;;;8.30;1.70;;;;;;;12.48;100.00;101926.53;5000604;28;20056;-82
2023/05/16 06:47:24;;;;;;;9.82;1.63;;;;;;;12.45;100.00;101937.06;5038922;28;20509;-81
2023/05/16 06:49:53;;;;;;;6.13;1.70;;;;;;;12.40;100.00;101938.78;5043397;28;21231;-81
2023/05/16 06:52:21;;;;;;;8.32;1.58;;;;;;;12.34;100.00;101936.03;5066778;28;20429;-81
2023/05/16 06:54:48;;;;;;;10.45;2.13;;;;;;;12.32;100.00;101936.91;5059953;28;20055;-82
2023/05/16 06:57:17;;;;;;;6.38;1.73;;;;;;;12.30;100.00;101931.59;5040754;28;20053;-81
2023/05/16 06:59:46;;;;;;;8.73;1.40;;;;;;;12.21;100.00;101942.94;4970449;28;20445;-82
2023/05/16 07:02:14;;;;;;;8.07;2.55;;;;;;;12.08;100.00;101952.44;5066579;28;20382;-82
2023/05/16 07:04:41;;;;;;;8.70;1.65;;;;;;;11.89;100.00;101946.00;5019139;28;20052;-82
2023/05/16 07:07:08;;;;;;;8.02;1.70;;;;;;;11.64;100.00;101957.84;5034201;28;20045;-81
2023/05/16 07:09:36;;;;;;;6.95;1.67;;;;;;;11.45;100.00;101954.03;5025382;28;20437;-81
2023/05/16 07:12:04;;;;;;;6.95;1.70;;;;;;;11.39;100.00;101947.75;5049993;28;20053;-82
2023/05/16 07:14:32;;;;;;;3.25;1.42;;;;;;;11.47;100.00;101946.13;5011493;28;20049;-82
2023/05/16 07:16:59;;;;;;;9.82;1.98;;;;;;;11.57;100.00;101942.81;5037194;28;20052;-82
2023/05/16 07:19:29;;;;;;;9.13;1.88;;;;;;;11.66;100.00;101940.31;5028738;28;20045;-82
2023/05/16 07:21:56;;;;;;;7.03;2.00;;;;;;;11.82;100.00;101940.56;5014082;28;20072;-82
2023/05/16 07:24:24;;;;;;;6.85;1.55;;;;;;;11.96;100.00;101946.94;5047626;28;20057;-83
2023/05/16 07:26:51;;;;;;;8.30;2.42;;;;;;;11.88;100.00;101949.44;5032538;28;20541;-82
2023/05/16 07:29:19;;;;;;;9.35;2.22;;;;;;;11.70;100.00;101954.44;5048167;28;20410;-80
2023/05/16 07:31:46;;;;;;;9.82;2.08;;;;;;;11.63;100.00;101958.75;5009737;28;20060;-80
2023/05/16 07:34:13;;;;;;;6.47;2.17;;;;;;;11.70;100.00;101957.97;5045610;28;20379;-83
2023/05/16 07:36:41;;;;;;;9.18;2.15;;;;;;;11.79;100.00;101959.88;5027789;28;20056;-81
2023/05/16 07:39:08;;;;;;;10.75;2.85;;;;;;;11.93;100.00;101962.78;5030327;28;20053;-80
2023/05/16 07:41:36;;;;;;;11.63;2.35;;;;;;;12.05;100.00;101960.31;5032023;28;20060;-81
2023/05/16 07:44:03;;;;;;;6.43;2.13;;;;;;;12.11;100.00;101962.16;5022940;28;20056;-81
2023/05/16 07:46:31;;;;;;;8.32;1.77;;;;;;;12.18;100.00;101965.78;5009202;28;20053;-81
2023/05/16 07:48:58;;;;;;;10.77;2.08;;;;;;;12.20;100.00;101977.25;5045683;28;20065;-81
2023/05/16 07:51:26;;;;;;;5.70;1.73;;;;;;;12.30;100.00;101958.00;5015611;28;20484;-81
2023/05/16 07:53:53;;;;;;;8.48;2.17;;;;;;;12.43;100.00;101970.53;5048887;28;20753;-81
2023/05/16 07:56:22;;;;;;;6.43;1.90;;;;;;;12.36;100.00;101967.78;5049530;28;20045;-81
2023/05/16 07:58:50;;;;;;;12.68;2.42;;;;;;;12.19;100.00;101979.03;5056862;28;20045;-81
2023/05/16 08:01:18;;;;;;;5.70;1.80;;;;;;;12.02;100.00;101972.56;4993728;28;20064;-80
2023/05/16 08:03:45;;;;;;;8.55;1.88;;;;;;;11.96;100.00;101978.66;5030458;28;20045;-82
2023/05/16 08:06:13;;;;;;;7.18;1.80;;;;;;;11.86;100.00;101976.72;5057915;28;20425;-82
2023/05/16 08:08:41;;;;;;;6.95;1.55;;;;;;;11.64;100.00;101986.91;5030220;28;20041;-82
2023/05/16 08:11:08;;;;;;;8.90;2.10;;;;;;;11.52;100.00;101976.16;5045692;28;20064;-80
2023/05/16 08:13:36;;;;;;;8.98;2.17;;;;;;;11.48;100.00;101972.56;5036317;28;20056;-80
2023/05/16 08:16:04;;;;;;;8.25;1.55;;;;;;;11.44;100.00;101980.41;5006362;28;20052;-81
2023/05/16 08:18:31;;;;;;;12.38;2.40;;;;;;;11.47;100.00;101983.09;5041442;28;20407;-80
2023/05/16 08:20:59;;;;;;;6.78;1.60;;;;;;;11.67;100.00;101976.41;5015862;28;20053;-80
2023/05/16 08:23:26;;;;;;;8.85;1.77;;;;;;;11.77;100.00;101972.16;5037511;28;20056;-80
2023/05/16 08:25:54;;;;;;;11.43;2.15;;;;;;;11.84;100.00;101970.53;5012483;28;20381;-80
2023/05/16 08:28:21;;;;;;;7.90;1.90;;;;;;;11.89;100.00;101971.50;5029285;28;20548;-80
2023/05/16 08:30:49;;;;;;;8.63;2.20;;;;;;;11.85;100.00;101981.13;5032948;28;20053;-82
2023/05/16 08:33:16;;;;;;;9.20;2.13;;;;;;;11.72;100.00;101981.78;4977236;28;20053;-82
2023/05/16 08:35:47;;;;;;;8.80;1.83;;;;;;;11.57;100.00;101986.78;5030517;28;20037;-80
2023/05/16 08:38:15;;;;;;;11.30;1.98;;;;;;;11.52;100.00;101984.94;5042038;28;20053;-80
2023/05/16 08:40:44;;;;;;;7.03;2.22;;;;;;;11.66;100.00;101976.38;5029278;28;20044;-81
2023/05/16 08:43:12;;;;;;;13.70;2.50;;;;;;;11.84;100.00;101974.03;5041403;28;20045;-80
2023/05/16 08:45:41;;;;;;;9.02;2.03;;;;;;;12.05;100.00;101984.09;5037703;28;20060;-82
2023/05/16 08:48:10;;;;;;;7.10;2.08;;;;;;;12.11;100.00;101992.97;5002806;28;20049;-81
2023/05/16 08:50:38;;;;;;;7.28;1.77;;;;;;;12.13;100.00;101978.91;5047586;28;20053;-80
2023/05/16 08:53:08;;;;;;;11.60;2.42;;;;;;;12.04;100.00;101991.97;5045162;28;20052;-81
2023/05/16 08:55:36;;;;;;;8.45;2.38;;;;;;;12.05;100.00;101994.66;5043952;28;20488;-81
2023/05/16 08:58:04;;;;;;;6.60;2.20;;;;;;;12.19;100.00;101986.03;5047813;28;20055;-81
2023/05/16 09:00:32;;;;;;;12.60;2.30;;;;;;;12.39;100.00;101991.63;5013354;28;20088;-81
2023/05/16 09:03:00;;;;;;;6.95;2.00;;;;;;;12.46;100.00;102006.72;5016276;28;20912;-81
2023/05/16 09:05:28;;;;;;;8.82;1.40;;;;;;;12.28;100.00;101991.47;5050033;28;20048;-82
2023/05/16 09:07:59;;;;;;;10.95;2.15;;;;;;;12.05;100.00;102004.34;5037062;28;20064;-81
2023/05/16 09:10:26;;;;;;;6.97;1.50;;;;;;;11.97;100.00;101996.28;5055135;28;20049;-81
2023/05/16 09:12:54;;;;;;;10.73;1.65;;;;;;;11.97;100.00;101991.00;5048060;28;20044;-81
2023/05/16 09:15:21;;;;;;;6.32;1.65;;;;;;;11.92;100.00;101997.97;5033703;28;20060;-81
2023/05/16 09:17:49;;;;;;;10.70;1.58;;;;;;;11.77;100.00;101995.03;5010710;28;20064;-81
2023/05/16 09:20:18;;;;;;;10.07;1.77;;;;;;;11.62;100.00;101998.31;5037220;28;20052;-81
2023/05/16 09:22:57;;;;;;;6.53;1.80;;;;;;;11.57;100.00;102002.59;5037399;28;20052;-81
2023/05/16 09:25:29;;;;;;;12.32;2.03;;;;;;;11.65;100.00;102001.91;5065557;28;20071;-81
2023/05/16 09:28:00;;;;;;;8.82;2.00;;;;;;;11.66;100.00;102005.41;5050434;28;20045;-81
2023/05/16 09:30:31;;;;;;;11.48;2.13;;;;;;;11.60;100.00;102024.69;5053195;28;20040;-81
2023/05/16 09:32:58;;;;;;;7.93;1.60;;;;;;;11.40;100.00;102019.06;5014414;28;20048;-80
2023/05/16 09:35:26;;;;;;;8.77;1.67;;;;;;;11.22;100.00;102032.78;5050624;28;20060;-81
2023/05/16 09:37:57;;;;;;;10.65;2.20;;;;;;;11.20;100.00;102016.03;5048601;28;20474;-81
2023/05/16 09:40:25;;;;;;;6.40;1.90;;;;;;;11.22;100.00;102019.59;5035514;28;20049;-80
2023/05/16 09:43:05;;;;;;;5.85;1.60;;;;;;;11.43;100.00;102013.81;5038950;28;20052;-80
2023/05/16 09:45:36;;;;;;;6.88;1.40;;;;;;;11.56;100.00;102019.34;5053022;28;20055;-81
2023/05/16 09:48:06;;;;;;;4.80;1.05;;;;;;;11.65;100.00;102015.09;5048269;28;20055;-80
2023/05/16 09:50:36;;;;;;;3.25;0.98;;;;;;;11.74;100.00;102011.75;5013313;28;20048;-81
2023/05/16 09:53:04;;;;;;;4.85;0.95;;;;;;;11.88;100.00;102006.66;5052426;28;20044;-82
2023/05/16 09:55:32;;;;;;;5.03;1.42;;;;;;;11.99;100.00;102005.13;5035202;28;20059;-82
2023/05/16 09:58:00;;;;;;;6.80;1.33;;;;;;;12.15;100.00;102015.94;5013105;28;20060;-80
2023/05/16 10:00:30;;;;;;;6.95;1.50;;;;;;;12.28;100.00;102021.41;5052446;28;20052;-81
2023/05/16 10:03:00;;;;;;;6.75;1.38;;;;;;;12.40;100.00;102012.81;5019255;28;20049;-81
2023/05/16 10:05:32;;;;;;;8.02;1.63;;;;;;;12.54;100.00;102007.69;5013718;28;20408;-81
2023/05/16 10:08:03;;;;;;;5.15;1.67;;;;;;;12.61;100.00;102014.84;5054340;28;20056;-82
2023/05/16 10:10:35;;;;;;;7.30;1.63;;;;;;;12.75;100.00;102003.56;5025290;28;20510;-80
2023/05/16 10:13:06;;;;;;;6.93;1.70;;;;;;;12.81;100.00;102009.78;5062998;28;20052;-80
2023/05/16 10:15:35;;;;;;;5.70;1.60;;;;;;;12.80;100.00;102002.75;5052174;28;20041;-81
2023/05/16 10:18:10;;;;;;;7.10;2.07;;;;;;;12.82;100.00;102002.78;5061975;28;20052;-80
2023/05/16 10:20:41;;;;;;;8.32;2.40;;;;;;;12.88;100.00;101998.44;5013025;28;20299;-81
2023/05/16 10:23:15;;;;;;;6.25;2.35;;;;;;;12.84;100.00;102004.56;5052263;28;20420;-81
2023/05/16 10:25:43;;;;;;;10.95;2.55;;;;;;;12.78;100.00;102007.13;5037596;28;20041;-81
2023/05/16 10:28:15;;;;;;;8.82;2.13;;;;;;;12.63;100.00;102036.91;5056725;28;20052;-81
2023/05/16 10:30:44;;;;;;;7.03;1.63;;;;;;;12.32;100.00;102046.13;5042958;28;20066;-82
2023/05/16 10:33:17;;;;;;;3.53;1.15;;;;;;;11.78;100.00;102063.75;5041801;28;20053;-81
2023/05/16 10:35:47;;;;;;;5.82;1.73;;;;;;;11.24;100.00;102062.72;5025993;28;20044;-81
2023/05/16 10:38:17;;;;;;;3.58;1.17;;;;;;;10.91;100.00;102057.66;5047854;28;20048;-81
2023/05/16 10:40:47;;;;;;;5.50;1.35;;;;;;;10.67;100.00;102044.84;5032995;28;20053;-81
2023/05/16 10:43:29;;;;;;;4.10;1.00;;;;;;;10.44;100.00;102039.06;5004788;28;20060;-81
2023/05/16 10:46:08;;;;;;;2.75;1.02;;;;;;;10.22;100.00;102037.63;5039637;28;20060;-81
2023/05/16 10:48:40;;;;;;;8.48;1.65;;;;;;;10.26;100.00;102026.28;5052553;28;20051;-81
2023/05/16 10:51:22;;;;;;;5.78;1.77;;;;;;;10.41;100.00;102018.78;5019086;28;20919;-81
2023/05/16 10:53:51;;;;;;;6.85;1.10;;;;;;;10.66;100.00;102024.59;5069263;28;20044;-81
2023/05/16 10:56:23;;;;;;;5.60;1.73;;;;;;;11.01;100.00;102008.63;5043928;28;20395;-81
2023/05/16 10:58:53;;;;;;;4.78;1.30;;;;;;;11.33;100.00;102009.25;5032153;28;20048;-80
2023/05/16 11:01:33;;;;;;;9.35;2.10;;;;;;;11.46;100.00;102015.66;5063191;28;20602;-81
2023/05/16 11:04:09;;;;;;;7.07;1.73;;;;;;;11.62;100.00;102020.31;5056997;28;20044;-81
2023/05/16 11:06:39;;;;;;;10.27;1.85;;;;;;;11.91;100.00;102012.06;5051382;28;20049;-81
2023/05/16 11:09:18;;;;;;;6.47;1.55;;;;;;;12.18;100.00;102013.34;5011963;28;20055;-81
2023/05/16 11:11:52;;;;;;;10.93;2.13;;;;;;;12.31;100.00;102017.94;5042953;28;20060;-81
2023/05/16 11:14:27;;;;;;;5.55;1.58;;;;;;;12.40;100.00;102012.81;5025549;28;20064;-81
2023/05/16 11:16:59;;;;;;;8.73;1.60;;;;;;;12.52;100.00;102021.78;5065412;28;20056;-80
2023/05/16 11:19:57;;;;;;;9.90;1.90;;;;;;;12.50;100.00;102026.16;5064422;28;20424;-81
2023/05/16 11:22:28;;;;;;;6.40;1.65;;;;;;;12.52;100.00;102021.78;5064595;28;20052;-82
2023/05/16 11:24:56;;;;;;;20.05;2.40;;;;;;;12.56;100.00;102013.88;5027017;28;20052;-82
2023/05/16 11:27:29;;;;;;;11.55;1.92;;;;;;;12.65;100.00;102018.44;5051381;28;20048;-82